sensor_id;sensor_type;location;lat;lon;timestamp;pressure;altitude;pressure_sealevel;temperature;humidity
66396;BME280;53207;51.378;-1.342;2023-02-13T00:00:29;102127.78;;;19.88;35.29
66396;BME280;53207;51.378;-1.342;2023-02-13T00:02:56;102121.92;;;20.32;35.21
66396;BME280;53207;51.378;-1.342;2023-02-13T00:05:23;102116.86;;;20.01;35.28
66396;BME280;53207;51.378;-1.342;2023-02-13T00:07:50;102116.13;;;20.04;35.22
66396;BME280;53207;51.378;-1.342;2023-02-13T00:10:18;102113.55;;;20.21;35.25
66396;BME280;53207;51.378;-1.342;2023-02-13T00:12:45;102114.45;;;20.02;35.21
66396;BME280;53207;51.378;-1.342;2023-02-13T00:15:12;102112.06;;;20.18;35.23
66396;BME280;53207;51.378;-1.342;2023-02-13T00:17:40;102112.06;;;20.18;35.19
66396;BME280;53207;51.378;-1.342;2023-02-13T00:20:10;102108.24;;;20.18;35.21
66396;BME280;53207;51.378;-1.342;2023-02-13T00:22:37;102107.38;;;20.14;35.23
66396;BME280;53207;51.378;-1.342;2023-02-13T00:25:06;102105.09;;;19.83;35.28
66396;BME280;53207;51.378;-1.342;2023-02-13T00:27:33;102100.83;;;20.02;35.32
66396;BME280;53207;51.378;-1.342;2023-02-13T00:30:00;102101.20;;;19.98;35.35
66396;BME280;53207;51.378;-1.342;2023-02-13T00:32:27;102096.36;;;20.03;35.29
66396;BME280;53207;51.378;-1.342;2023-02-13T00:34:54;102096.10;;;20.09;35.17
66396;BME280;53207;51.378;-1.342;2023-02-13T00:37:21;102091.59;;;20.16;35.08
66396;BME280;53207;51.378;-1.342;2023-02-13T00:39:49;102090.65;;;19.63;35.15
66396;BME280;53207;51.378;-1.342;2023-02-13T00:42:16;102095.49;;;19.74;35.27
66396;BME280;53207;51.378;-1.342;2023-02-13T00:44:43;102096.63;;;19.96;34.98
66396;BME280;53207;51.378;-1.342;2023-02-13T00:47:10;102098.56;;;19.90;35.03
66396;BME280;53207;51.378;-1.342;2023-02-13T00:49:38;102092.27;;;19.94;34.94
66396;BME280;53207;51.378;-1.342;2023-02-13T00:52:05;102093.70;;;19.70;34.96
66396;BME280;53207;51.378;-1.342;2023-02-13T00:54:33;102091.33;;;20.06;35.06
66396;BME280;53207;51.378;-1.342;2023-02-13T00:57:00;102089.05;;;20.14;34.93
66396;BME280;53207;51.378;-1.342;2023-02-13T00:59:28;102088.54;;;19.84;34.99
66396;BME280;53207;51.378;-1.342;2023-02-13T01:01:56;102088.78;;;19.85;34.96
66396;BME280;53207;51.378;-1.342;2023-02-13T01:04:23;102090.48;;;20.04;34.97
66396;BME280;53207;51.378;-1.342;2023-02-13T01:06:50;102092.72;;;20.03;34.97
66396;BME280;53207;51.378;-1.342;2023-02-13T01:09:17;102086.19;;;19.83;34.91
66396;BME280;53207;51.378;-1.342;2023-02-13T01:11:45;102085.28;;;19.73;34.99
66396;BME280;53207;51.378;-1.342;2023-02-13T01:14:12;102082.18;;;19.79;34.94
66396;BME280;53207;51.378;-1.342;2023-02-13T01:16:39;102083.73;;;19.51;34.99
66396;BME280;53207;51.378;-1.342;2023-02-13T01:19:07;102080.12;;;19.67;35.06
66396;BME280;53207;51.378;-1.342;2023-02-13T01:21:34;102079.32;;;19.69;35.01
66396;BME280;53207;51.378;-1.342;2023-02-13T01:24:03;102080.73;;;19.89;35.04
66396;BME280;53207;51.378;-1.342;2023-02-13T01:26:31;102085.42;;;19.86;35.04
66396;BME280;53207;51.378;-1.342;2023-02-13T01:28:58;102085.19;;;19.84;35.05
66396;BME280;53207;51.378;-1.342;2023-02-13T01:31:26;102086.10;;;19.90;34.98
66396;BME280;53207;51.378;-1.342;2023-02-13T01:33:55;102083.88;;;19.43;34.97
66396;BME280;53207;51.378;-1.342;2023-02-13T01:36:23;102085.97;;;19.84;35.01
66396;BME280;53207;51.378;-1.342;2023-02-13T01:38:52;102085.57;;;19.49;34.89
66396;BME280;53207;51.378;-1.342;2023-02-13T01:41:20;102084.90;;;19.88;34.93
66396;BME280;53207;51.378;-1.342;2023-02-13T01:43:50;102083.37;;;19.47;34.88
66396;BME280;53207;51.378;-1.342;2023-02-13T01:46:23;102088.84;;;19.64;34.91
66396;BME280;53207;51.378;-1.342;2023-02-13T01:48:54;102088.97;;;19.83;34.94
66396;BME280;53207;51.378;-1.342;2023-02-13T01:51:27;102095.65;;;19.52;35.04
66396;BME280;53207;51.378;-1.342;2023-02-13T01:54:01;102093.36;;;19.84;34.89
66396;BME280;53207;51.378;-1.342;2023-02-13T01:56:32;102092.40;;;19.77;34.94
66396;BME280;53207;51.378;-1.342;2023-02-13T01:59:05;102094.17;;;19.55;34.95
66396;BME280;53207;51.378;-1.342;2023-02-13T02:01:34;102094.54;;;19.76;34.93
66396;BME280;53207;51.378;-1.342;2023-02-13T02:04:07;102093.09;;;19.84;34.82
66396;BME280;53207;51.378;-1.342;2023-02-13T02:06:40;102097.02;;;19.74;34.94
66396;BME280;53207;51.378;-1.342;2023-02-13T02:09:11;102094.92;;;19.71;34.94
66396;BME280;53207;51.378;-1.342;2023-02-13T02:11:45;102094.58;;;19.48;34.94
66396;BME280;53207;51.378;-1.342;2023-02-13T02:14:16;102089.20;;;19.66;34.97
66396;BME280;53207;51.378;-1.342;2023-02-13T02:16:43;102081.01;;;19.74;34.86
66396;BME280;53207;51.378;-1.342;2023-02-13T02:19:16;102081.32;;;19.39;35.02
66396;BME280;53207;51.378;-1.342;2023-02-13T02:22:00;102077.56;;;19.63;35.00
66396;BME280;53207;51.378;-1.342;2023-02-13T02:24:46;102080.39;;;19.39;35.00
66396;BME280;53207;51.378;-1.342;2023-02-13T02:27:32;102078.74;;;19.56;35.03
66396;BME280;53207;51.378;-1.342;2023-02-13T02:30:22;102075.12;;;19.59;35.00
66396;BME280;53207;51.378;-1.342;2023-02-13T02:32:58;102075.50;;;19.14;35.00
66396;BME280;53207;51.378;-1.342;2023-02-13T02:35:32;102073.86;;;19.56;35.03
66396;BME280;53207;51.378;-1.342;2023-02-13T02:38:12;102071.35;;;19.61;34.94
66396;BME280;53207;51.378;-1.342;2023-02-13T02:40:50;102071.96;;;19.12;35.00
66396;BME280;53207;51.378;-1.342;2023-02-13T02:43:28;102076.10;;;19.61;34.93
66396;BME280;53207;51.378;-1.342;2023-02-13T02:46:04;102072.89;;;19.59;34.93
66396;BME280;53207;51.378;-1.342;2023-02-13T02:48:40;102074.35;;;19.31;35.00
66396;BME280;53207;51.378;-1.342;2023-02-13T02:51:17;102074.30;;;19.53;34.99
66396;BME280;53207;51.378;-1.342;2023-02-13T02:53:53;102071.64;;;19.30;34.97
66396;BME280;53207;51.378;-1.342;2023-02-13T02:56:26;102070.60;;;19.37;35.17
66396;BME280;53207;51.378;-1.342;2023-02-13T02:59:00;102064.66;;;19.54;34.97
66396;BME280;53207;51.378;-1.342;2023-02-13T03:01:31;102059.16;;;19.47;35.02
66396;BME280;53207;51.378;-1.342;2023-02-13T03:04:00;102062.36;;;19.44;35.06
66396;BME280;53207;51.378;-1.342;2023-02-13T03:06:33;102062.54;;;19.48;34.99
66396;BME280;53207;51.378;-1.342;2023-02-13T03:09:06;102061.57;;;19.45;35.02
66396;BME280;53207;51.378;-1.342;2023-02-13T03:11:36;102061.77;;;19.43;35.04
66396;BME280;53207;51.378;-1.342;2023-02-13T03:14:06;102057.09;;;19.42;35.05
66396;BME280;53207;51.378;-1.342;2023-02-13T03:16:35;102063.18;;;19.34;35.12
66396;BME280;53207;51.378;-1.342;2023-02-13T03:19:02;102058.34;;;19.34;35.12
66396;BME280;53207;51.378;-1.342;2023-02-13T03:21:37;102055.46;;;19.29;35.14
66396;BME280;53207;51.378;-1.342;2023-02-13T03:24:16;102059.17;;;19.35;35.10
66396;BME280;53207;51.378;-1.342;2023-02-13T03:26:55;102055.23;;;19.37;35.07
66396;BME280;53207;51.378;-1.342;2023-02-13T03:29:37;102058.13;;;19.30;35.12
66396;BME280;53207;51.378;-1.342;2023-02-13T03:32:12;102055.00;;;19.27;35.18
66396;BME280;53207;51.378;-1.342;2023-02-13T03:34:53;102053.79;;;19.28;35.14
66396;BME280;53207;51.378;-1.342;2023-02-13T03:37:27;102052.01;;;19.21;35.23
66396;BME280;53207;51.378;-1.342;2023-02-13T03:40:02;102048.77;;;19.27;35.14
66396;BME280;53207;51.378;-1.342;2023-02-13T03:42:34;102043.45;;;19.28;35.13
66396;BME280;53207;51.378;-1.342;2023-02-13T03:45:06;102040.71;;;19.20;35.22
66396;BME280;53207;51.378;-1.342;2023-02-13T03:47:37;102045.60;;;19.14;35.28
66396;BME280;53207;51.378;-1.342;2023-02-13T03:50:07;102047.51;;;19.21;35.18
66396;BME280;53207;51.378;-1.342;2023-02-13T03:52:42;102049.78;;;19.23;35.14
66396;BME280;53207;51.378;-1.342;2023-02-13T03:55:13;102047.57;;;19.47;35.16
66396;BME280;53207;51.378;-1.342;2023-02-13T03:57:43;102044.67;;;19.44;35.21
66396;BME280;53207;51.378;-1.342;2023-02-13T04:00:14;102042.77;;;19.15;35.22
66396;BME280;53207;51.378;-1.342;2023-02-13T04:02:51;102046.15;;;19.17;35.19
66396;BME280;53207;51.378;-1.342;2023-02-13T04:05:23;102044.73;;;19.08;35.29
66396;BME280;53207;51.378;-1.342;2023-02-13T04:07:51;102042.70;;;19.13;35.20
66396;BME280;53207;51.378;-1.342;2023-02-13T04:10:19;102042.75;;;19.13;35.20
66396;BME280;53207;51.378;-1.342;2023-02-13T04:12:51;102044.35;;;19.33;35.26
66396;BME280;53207;51.378;-1.342;2023-02-13T04:15:21;102042.67;;;19.08;35.23
66396;BME280;53207;51.378;-1.342;2023-02-13T04:17:54;102044.50;;;19.35;35.21
66396;BME280;53207;51.378;-1.342;2023-02-13T04:20:26;102043.72;;;19.30;35.25
66396;BME280;53207;51.378;-1.342;2023-02-13T04:22:53;102045.09;;;19.08;35.17
66396;BME280;53207;51.378;-1.342;2023-02-13T04:25:21;102046.63;;;19.13;35.08
66396;BME280;53207;51.378;-1.342;2023-02-13T04:27:48;102046.86;;;19.08;35.14
66396;BME280;53207;51.378;-1.342;2023-02-13T04:30:15;102047.40;;;19.03;35.19
66396;BME280;53207;51.378;-1.342;2023-02-13T04:32:43;102046.00;;;18.97;35.23
66396;BME280;53207;51.378;-1.342;2023-02-13T04:35:10;102045.46;;;19.24;35.22
66396;BME280;53207;51.378;-1.342;2023-02-13T04:37:37;102045.37;;;19.22;35.25
66396;BME280;53207;51.378;-1.342;2023-02-13T04:40:05;102042.98;;;19.04;35.16
66396;BME280;53207;51.378;-1.342;2023-02-13T04:42:33;102037.88;;;19.02;35.20
66396;BME280;53207;51.378;-1.342;2023-02-13T04:45:00;102038.21;;;18.98;35.28
66396;BME280;53207;51.378;-1.342;2023-02-13T04:47:27;102035.04;;;18.91;35.38
66396;BME280;53207;51.378;-1.342;2023-02-13T04:49:55;102036.06;;;18.94;35.37
66396;BME280;53207;51.378;-1.342;2023-02-13T04:52:22;102035.85;;;18.92;35.40
66396;BME280;53207;51.378;-1.342;2023-02-13T04:54:49;102039.11;;;18.99;35.34
66396;BME280;53207;51.378;-1.342;2023-02-13T04:57:17;102043.14;;;18.95;35.39
66396;BME280;53207;51.378;-1.342;2023-02-13T04:59:44;102045.61;;;18.92;35.43
66396;BME280;53207;51.378;-1.342;2023-02-13T05:02:12;102048.52;;;18.97;35.37
66396;BME280;53207;51.378;-1.342;2023-02-13T05:04:39;102046.22;;;18.89;35.44
66396;BME280;53207;51.378;-1.342;2023-02-13T05:07:07;102041.81;;;18.88;35.49
66396;BME280;53207;51.378;-1.342;2023-02-13T05:09:34;102041.94;;;18.83;35.52
66396;BME280;53207;51.378;-1.342;2023-02-13T05:12:02;102048.30;;;18.83;35.52
66396;BME280;53207;51.378;-1.342;2023-02-13T05:14:29;102045.07;;;18.80;35.53
66396;BME280;53207;51.378;-1.342;2023-02-13T05:16:56;102046.74;;;19.11;35.49
66396;BME280;53207;51.378;-1.342;2023-02-13T05:19:23;102047.06;;;18.79;35.53
66396;BME280;53207;51.378;-1.342;2023-02-13T05:21:51;102043.59;;;18.78;35.52
66396;BME280;53207;51.378;-1.342;2023-02-13T05:24:18;102038.73;;;19.05;35.52
66396;BME280;53207;51.378;-1.342;2023-02-13T05:26:45;102037.99;;;19.01;35.55
66396;BME280;53207;51.378;-1.342;2023-02-13T05:29:13;102040.92;;;18.99;35.56
66396;BME280;53207;51.378;-1.342;2023-02-13T05:31:40;102040.63;;;19.05;35.46
66396;BME280;53207;51.378;-1.342;2023-02-13T05:34:08;102039.41;;;19.03;35.47
66396;BME280;53207;51.378;-1.342;2023-02-13T05:36:35;102042.23;;;18.70;35.53
66396;BME280;53207;51.378;-1.342;2023-02-13T05:39:03;102041.96;;;19.16;35.57
66396;BME280;53207;51.378;-1.342;2023-02-13T05:41:30;102042.28;;;18.99;35.50
66396;BME280;53207;51.378;-1.342;2023-02-13T05:43:57;102041.73;;;18.96;35.52
66396;BME280;53207;51.378;-1.342;2023-02-13T05:46:25;102036.66;;;18.71;35.48
66396;BME280;53207;51.378;-1.342;2023-02-13T05:48:52;102034.58;;;18.68;35.50
66396;BME280;53207;51.378;-1.342;2023-02-13T05:51:19;102034.93;;;18.89;35.56
66396;BME280;53207;51.378;-1.342;2023-02-13T05:53:46;102035.92;;;18.68;35.48
66396;BME280;53207;51.378;-1.342;2023-02-13T05:56:14;102033.30;;;18.68;35.46
66396;BME280;53207;51.378;-1.342;2023-02-13T05:58:41;102029.34;;;18.65;35.48
66396;BME280;53207;51.378;-1.342;2023-02-13T06:01:08;102025.59;;;18.68;35.40
66396;BME280;53207;51.378;-1.342;2023-02-13T06:03:36;102023.11;;;18.83;35.54
66396;BME280;53207;51.378;-1.342;2023-02-13T06:06:03;102021.79;;;18.84;35.51
66396;BME280;53207;51.378;-1.342;2023-02-13T06:08:31;102024.90;;;19.04;35.56
66396;BME280;53207;51.378;-1.342;2023-02-13T06:10:58;102024.17;;;18.85;35.48
66396;BME280;53207;51.378;-1.342;2023-02-13T06:13:25;102025.39;;;19.05;35.50
66396;BME280;53207;51.378;-1.342;2023-02-13T06:15:53;102022.69;;;19.05;35.50
66396;BME280;53207;51.378;-1.342;2023-02-13T06:18:20;102018.52;;;18.77;35.55
66396;BME280;53207;51.378;-1.342;2023-02-13T06:20:47;102016.57;;;18.95;35.60
66396;BME280;53207;51.378;-1.342;2023-02-13T06:23:15;102018.16;;;18.97;35.56
66396;BME280;53207;51.378;-1.342;2023-02-13T06:25:43;102020.15;;;18.73;35.58
66396;BME280;53207;51.378;-1.342;2023-02-13T06:28:10;102019.49;;;18.74;35.55
66396;BME280;53207;51.378;-1.342;2023-02-13T06:30:37;102019.15;;;18.73;35.55
66396;BME280;53207;51.378;-1.342;2023-02-13T06:33:04;102016.28;;;18.43;35.61
66396;BME280;53207;51.378;-1.342;2023-02-13T06:35:32;102013.85;;;19.11;35.37
66396;BME280;53207;51.378;-1.342;2023-02-13T06:37:59;102009.09;;;19.14;35.33
66396;BME280;53207;51.378;-1.342;2023-02-13T06:40:26;102011.16;;;19.21;35.36
66396;BME280;53207;51.378;-1.342;2023-02-13T06:42:54;102012.58;;;18.95;35.55
66396;BME280;53207;51.378;-1.342;2023-02-13T06:45:21;102011.91;;;19.28;35.60
66396;BME280;53207;51.378;-1.342;2023-02-13T06:47:48;102011.98;;;19.21;35.69
66396;BME280;53207;51.378;-1.342;2023-02-13T06:50:16;102011.26;;;19.54;35.63
66396;BME280;53207;51.378;-1.342;2023-02-13T06:52:46;102011.22;;;19.62;35.64
66396;BME280;53207;51.378;-1.342;2023-02-13T06:55:13;102016.06;;;19.24;35.56
66396;BME280;53207;51.378;-1.342;2023-02-13T06:57:41;102018.74;;;19.64;35.47
66396;BME280;53207;51.378;-1.342;2023-02-13T07:00:09;102019.37;;;19.73;35.38
66396;BME280;53207;51.378;-1.342;2023-02-13T07:02:37;102021.78;;;19.53;35.34
66396;BME280;53207;51.378;-1.342;2023-02-13T07:05:04;102020.46;;;19.69;35.17
66396;BME280;53207;51.378;-1.342;2023-02-13T07:07:32;102020.02;;;19.79;35.08
66396;BME280;53207;51.378;-1.342;2023-02-13T07:10:00;102023.76;;;19.94;34.89
66396;BME280;53207;51.378;-1.342;2023-02-13T07:12:27;102025.23;;;20.06;34.69
66396;BME280;53207;51.378;-1.342;2023-02-13T07:14:54;102025.11;;;20.16;34.53
66396;BME280;53207;51.378;-1.342;2023-02-13T07:17:21;102021.16;;;19.99;34.42
66396;BME280;53207;51.378;-1.342;2023-02-13T07:19:49;102016.68;;;20.11;34.26
66396;BME280;53207;51.378;-1.342;2023-02-13T07:22:16;102019.84;;;20.23;34.09
66396;BME280;53207;51.378;-1.342;2023-02-13T07:24:43;102018.04;;;20.29;34.02
66396;BME280;53207;51.378;-1.342;2023-02-13T07:27:11;102021.16;;;20.50;34.06
66396;BME280;53207;51.378;-1.342;2023-02-13T07:29:38;102022.57;;;20.34;33.98
66396;BME280;53207;51.378;-1.342;2023-02-13T07:32:05;102024.05;;;20.56;33.99
66396;BME280;53207;51.378;-1.342;2023-02-13T07:34:33;102020.23;;;20.16;33.94
66396;BME280;53207;51.378;-1.342;2023-02-13T07:37:00;102020.56;;;20.23;33.81
66396;BME280;53207;51.378;-1.342;2023-02-13T07:39:27;102020.91;;;20.72;33.72
66396;BME280;53207;51.378;-1.342;2023-02-13T07:41:55;102022.60;;;20.47;33.81
66396;BME280;53207;51.378;-1.342;2023-02-13T07:44:22;102024.86;;;20.32;33.77
66396;BME280;53207;51.378;-1.342;2023-02-13T07:46:49;102025.58;;;20.33;33.79
66396;BME280;53207;51.378;-1.342;2023-02-13T07:49:16;102027.24;;;20.23;33.90
66396;BME280;53207;51.378;-1.342;2023-02-13T07:51:44;102030.71;;;20.28;33.84
66396;BME280;53207;51.378;-1.342;2023-02-13T07:54:11;102029.72;;;20.34;33.78
66396;BME280;53207;51.378;-1.342;2023-02-13T07:56:38;102030.05;;;20.26;33.88
66396;BME280;53207;51.378;-1.342;2023-02-13T07:59:06;102035.53;;;20.32;33.83
66396;BME280;53207;51.378;-1.342;2023-02-13T08:01:33;102032.25;;;20.47;33.90
66396;BME280;53207;51.378;-1.342;2023-02-13T08:04:01;102028.74;;;20.33;33.84
66396;BME280;53207;51.378;-1.342;2023-02-13T08:06:29;102028.65;;;20.28;33.91
66396;BME280;53207;51.378;-1.342;2023-02-13T08:08:56;102024.93;;;20.68;33.94
66396;BME280;53207;51.378;-1.342;2023-02-13T08:11:26;102023.68;;;20.67;34.00
66396;BME280;53207;51.378;-1.342;2023-02-13T08:13:54;102021.20;;;20.27;33.95
66396;BME280;53207;51.378;-1.342;2023-02-13T08:16:22;102018.72;;;20.35;33.92
66396;BME280;53207;51.378;-1.342;2023-02-13T08:18:49;102018.78;;;20.36;34.19
66396;BME280;53207;51.378;-1.342;2023-02-13T08:21:16;102020.38;;;20.05;34.36
66396;BME280;53207;51.378;-1.342;2023-02-13T08:23:43;102020.53;;;20.57;34.28
66396;BME280;53207;51.378;-1.342;2023-02-13T08:26:11;102024.45;;;20.22;34.40
66396;BME280;53207;51.378;-1.342;2023-02-13T08:28:38;102024.40;;;19.95;34.42
66396;BME280;53207;51.378;-1.342;2023-02-13T08:31:09;102021.23;;;19.90;34.52
66396;BME280;53207;51.378;-1.342;2023-02-13T08:33:37;102024.96;;;20.54;34.35
66396;BME280;53207;51.378;-1.342;2023-02-13T08:36:05;102031.15;;;20.18;34.60
66396;BME280;53207;51.378;-1.342;2023-02-13T08:38:32;102029.06;;;20.21;34.62
66396;BME280;53207;51.378;-1.342;2023-02-13T08:40:59;102027.16;;;20.02;34.64
66396;BME280;53207;51.378;-1.342;2023-02-13T08:43:27;102025.85;;;20.50;34.60
66396;BME280;53207;51.378;-1.342;2023-02-13T08:45:57;102029.95;;;19.94;34.76
66396;BME280;53207;51.378;-1.342;2023-02-13T08:48:24;102031.24;;;20.00;34.70
66396;BME280;53207;51.378;-1.342;2023-02-13T08:50:52;102030.15;;;20.01;34.68
66396;BME280;53207;51.378;-1.342;2023-02-13T08:53:19;102028.91;;;20.08;34.56
66396;BME280;53207;51.378;-1.342;2023-02-13T08:55:51;102028.01;;;20.06;34.58
66396;BME280;53207;51.378;-1.342;2023-02-13T08:58:18;102031.62;;;20.00;34.63
66396;BME280;53207;51.378;-1.342;2023-02-13T09:00:46;102030.97;;;20.03;34.62
66396;BME280;53207;51.378;-1.342;2023-02-13T09:03:13;102033.66;;;20.16;34.43
66396;BME280;53207;51.378;-1.342;2023-02-13T09:05:41;102035.42;;;20.24;34.27
66396;BME280;53207;51.378;-1.342;2023-02-13T09:08:09;102036.20;;;20.07;34.45
66396;BME280;53207;51.378;-1.342;2023-02-13T09:10:37;102033.33;;;19.98;34.52
66396;BME280;53207;51.378;-1.342;2023-02-13T09:13:04;102032.80;;;20.02;34.45
66396;BME280;53207;51.378;-1.342;2023-02-13T09:15:32;102032.18;;;19.90;34.26
66396;BME280;53207;51.378;-1.342;2023-02-13T09:17:59;102034.90;;;20.15;34.27
66396;BME280;53207;51.378;-1.342;2023-02-13T09:20:26;102033.50;;;20.21;34.17
66396;BME280;53207;51.378;-1.342;2023-02-13T09:22:54;102029.99;;;20.21;34.15
66396;BME280;53207;51.378;-1.342;2023-02-13T09:25:22;102032.91;;;20.25;34.06
66396;BME280;53207;51.378;-1.342;2023-02-13T09:27:49;102035.56;;;20.18;34.12
66396;BME280;53207;51.378;-1.342;2023-02-13T09:30:17;102036.28;;;20.16;34.09
66396;BME280;53207;51.378;-1.342;2023-02-13T09:32:44;102037.07;;;20.09;34.17
66396;BME280;53207;51.378;-1.342;2023-02-13T09:35:11;102039.21;;;20.14;34.13
66396;BME280;53207;51.378;-1.342;2023-02-13T09:37:38;102040.21;;;20.17;34.52
66396;BME280;53207;51.378;-1.342;2023-02-13T09:40:09;102038.90;;;20.36;34.64
66396;BME280;53207;51.378;-1.342;2023-02-13T09:42:42;102037.04;;;19.82;34.74
66396;BME280;53207;51.378;-1.342;2023-02-13T09:45:11;102031.82;;;19.90;34.67
66396;BME280;53207;51.378;-1.342;2023-02-13T09:47:41;102029.83;;;20.01;34.94
66396;BME280;53207;51.378;-1.342;2023-02-13T09:50:13;102030.97;;;19.99;35.08
66396;BME280;53207;51.378;-1.342;2023-02-13T09:52:44;102031.72;;;20.22;35.25
66396;BME280;53207;51.378;-1.342;2023-02-13T09:55:15;102031.40;;;19.92;35.30
66396;BME280;53207;51.378;-1.342;2023-02-13T09:57:49;102030.17;;;19.98;35.50
66396;BME280;53207;51.378;-1.342;2023-02-13T10:00:21;102028.87;;;19.52;35.45
66396;BME280;53207;51.378;-1.342;2023-02-13T10:03:08;102035.36;;;19.95;35.36
66396;BME280;53207;51.378;-1.342;2023-02-13T10:05:47;102028.63;;;19.32;35.54
66396;BME280;53207;51.378;-1.342;2023-02-13T10:08:28;102023.55;;;19.72;35.55
66396;BME280;53207;51.378;-1.342;2023-02-13T10:11:02;102021.71;;;19.30;35.44
66396;BME280;53207;51.378;-1.342;2023-02-13T10:13:43;102019.44;;;19.35;35.64
66396;BME280;53207;51.378;-1.342;2023-02-13T10:16:15;102018.13;;;19.59;35.55
66396;BME280;53207;51.378;-1.342;2023-02-13T10:18:48;102017.82;;;19.52;35.59
66396;BME280;53207;51.378;-1.342;2023-02-13T10:21:20;102018.20;;;19.48;35.63
66396;BME280;53207;51.378;-1.342;2023-02-13T10:23:52;102017.01;;;19.47;35.60
66396;BME280;53207;51.378;-1.342;2023-02-13T10:26:25;102017.43;;;19.40;35.63
66396;BME280;53207;51.378;-1.342;2023-02-13T10:28:57;102020.40;;;19.45;35.53
66396;BME280;53207;51.378;-1.342;2023-02-13T10:31:26;102017.60;;;19.31;35.65
66396;BME280;53207;51.378;-1.342;2023-02-13T10:33:58;102012.72;;;19.25;35.68
66396;BME280;53207;51.378;-1.342;2023-02-13T10:36:28;102006.17;;;19.27;35.61
66396;BME280;53207;51.378;-1.342;2023-02-13T10:39:00;102003.64;;;19.24;35.61
66396;BME280;53207;51.378;-1.342;2023-02-13T10:41:39;102004.50;;;19.17;35.64
66396;BME280;53207;51.378;-1.342;2023-02-13T10:44:22;102000.47;;;19.13;35.66
66396;BME280;53207;51.378;-1.342;2023-02-13T10:47:01;102002.26;;;19.41;35.63
66396;BME280;53207;51.378;-1.342;2023-02-13T10:49:45;102007.40;;;19.16;35.57
66396;BME280;53207;51.378;-1.342;2023-02-13T10:52:26;102009.83;;;19.10;35.60
66396;BME280;53207;51.378;-1.342;2023-02-13T10:55:09;102008.09;;;19.38;35.57
66396;BME280;53207;51.378;-1.342;2023-02-13T10:57:56;102009.30;;;19.36;35.55
66396;BME280;53207;51.378;-1.342;2023-02-13T11:00:34;102007.62;;;19.53;35.58
66396;BME280;53207;51.378;-1.342;2023-02-13T11:03:01;102004.74;;;19.24;35.64
66396;BME280;53207;51.378;-1.342;2023-02-13T11:05:31;102007.72;;;18.97;35.62
66396;BME280;53207;51.378;-1.342;2023-02-13T11:07:59;102007.23;;;18.96;35.61
66396;BME280;53207;51.378;-1.342;2023-02-13T11:10:27;102006.43;;;19.26;35.55
66396;BME280;53207;51.378;-1.342;2023-02-13T11:12:54;102005.75;;;18.97;35.54
66396;BME280;53207;51.378;-1.342;2023-02-13T11:15:24;102005.72;;;19.21;35.56
66396;BME280;53207;51.378;-1.342;2023-02-13T11:17:55;102005.16;;;18.96;35.51
66396;BME280;53207;51.378;-1.342;2023-02-13T11:20:29;101998.78;;;19.23;35.48
66396;BME280;53207;51.378;-1.342;2023-02-13T11:23:14;101998.06;;;19.20;35.54
66396;BME280;53207;51.378;-1.342;2023-02-13T11:25:54;101996.05;;;19.20;35.50
66396;BME280;53207;51.378;-1.342;2023-02-13T11:28:21;101994.70;;;18.92;35.47
66396;BME280;53207;51.378;-1.342;2023-02-13T11:30:49;101995.02;;;19.17;35.46
66396;BME280;53207;51.378;-1.342;2023-02-13T11:33:22;102001.55;;;18.88;35.44
66396;BME280;53207;51.378;-1.342;2023-02-13T11:36:04;101993.38;;;19.25;35.26
66396;BME280;53207;51.378;-1.342;2023-02-13T11:38:32;101992.13;;;19.41;35.24
66396;BME280;53207;51.378;-1.342;2023-02-13T11:41:09;101991.39;;;19.15;35.30
66396;BME280;53207;51.378;-1.342;2023-02-13T11:43:43;101987.38;;;18.91;35.25
66396;BME280;53207;51.378;-1.342;2023-02-13T11:46:17;101980.75;;;18.94;35.25
66396;BME280;53207;51.378;-1.342;2023-02-13T11:48:56;101982.38;;;18.89;35.34
66396;BME280;53207;51.378;-1.342;2023-02-13T11:51:43;101978.73;;;18.96;35.28
66396;BME280;53207;51.378;-1.342;2023-02-13T11:54:30;101977.28;;;18.93;35.28
66396;BME280;53207;51.378;-1.342;2023-02-13T11:57:00;101978.51;;;19.22;35.23
66396;BME280;53207;51.378;-1.342;2023-02-13T11:59:32;101973.55;;;18.69;35.24
66396;BME280;53207;51.378;-1.342;2023-02-13T12:02:13;101968.09;;;18.73;35.19
66396;BME280;53207;51.378;-1.342;2023-02-13T12:04:41;101962.39;;;18.97;35.13
66396;BME280;53207;51.378;-1.342;2023-02-13T12:07:14;101958.31;;;18.94;35.16
66396;BME280;53207;51.378;-1.342;2023-02-13T12:09:44;101957.18;;;19.01;35.07
66396;BME280;53207;51.378;-1.342;2023-02-13T12:12:17;101955.03;;;18.96;35.10
66396;BME280;53207;51.378;-1.342;2023-02-13T12:14:45;101949.06;;;19.08;34.97
66396;BME280;53207;51.378;-1.342;2023-02-13T12:17:15;101944.27;;;19.08;34.95
66396;BME280;53207;51.378;-1.342;2023-02-13T12:19:45;101938.43;;;18.83;35.00
66396;BME280;53207;51.378;-1.342;2023-02-13T12:22:22;101940.17;;;19.34;34.98
66396;BME280;53207;51.378;-1.342;2023-02-13T12:25:12;101935.80;;;19.08;34.97
66396;BME280;53207;51.378;-1.342;2023-02-13T12:27:50;101937.84;;;19.11;34.95
66396;BME280;53207;51.378;-1.342;2023-02-13T12:30:48;101937.48;;;19.16;34.92
66396;BME280;53207;51.378;-1.342;2023-02-13T12:33:31;101935.84;;;19.14;34.94
66396;BME280;53207;51.378;-1.342;2023-02-13T12:36:06;101930.05;;;19.21;34.82
66396;BME280;53207;51.378;-1.342;2023-02-13T12:38:49;101926.27;;;19.23;34.77
66396;BME280;53207;51.378;-1.342;2023-02-13T12:41:21;101925.64;;;19.16;34.86
66396;BME280;53207;51.378;-1.342;2023-02-13T12:44:12;101919.49;;;19.14;34.89
66396;BME280;53207;51.378;-1.342;2023-02-13T12:46:52;101920.83;;;18.85;34.95
66396;BME280;53207;51.378;-1.342;2023-02-13T12:49:38;101921.51;;;19.14;34.89
66396;BME280;53207;51.378;-1.342;2023-02-13T12:52:22;101915.75;;;18.99;34.78
66396;BME280;53207;51.378;-1.342;2023-02-13T12:55:10;101913.81;;;19.12;34.88
66396;BME280;53207;51.378;-1.342;2023-02-13T12:57:52;101914.13;;;19.11;34.89